createdAt,value
2019-06-10T00:00:13.802Z,1013.11
2019-06-10T00:01:11.877Z,1013.15
2019-06-10T00:02:10.902Z,1013.12
2019-06-10T00:03:11.482Z,1013.11
2019-06-10T00:04:12.491Z,1013.09
2019-06-10T00:05:13.792Z,1013.08
2019-06-10T00:06:11.516Z,1013.11
2019-06-10T00:07:11.845Z,1013.09
2019-06-10T00:08:11.822Z,1013.10
2019-06-10T00:09:11.737Z,1013.07
2019-06-10T00:10:10.774Z,1013.06
2019-06-10T00:11:11.659Z,1013.03
2019-06-10T00:12:12.375Z,1013.00
2019-06-10T00:13:11.894Z,1012.94
2019-06-10T00:14:10.718Z,1012.91
2019-06-10T00:15:10.867Z,1012.88
2019-06-10T00:16:11.508Z,1012.93
2019-06-10T00:17:10.991Z,1012.92
2019-06-10T00:18:33.313Z,1012.94
2019-06-10T00:19:12.723Z,1012.93
2019-06-10T00:20:11.205Z,1012.94
2019-06-10T00:21:11.152Z,1012.95
2019-06-10T00:22:11.534Z,1012.97
2019-06-10T00:23:12.092Z,1013.02
2019-06-10T00:24:11.797Z,1013.05
2019-06-10T00:25:11.848Z,1013.09
2019-06-10T00:26:12.187Z,1013.12
2019-06-10T00:27:11.810Z,1013.15
2019-06-10T00:28:12.139Z,1013.14
2019-06-10T00:29:11.764Z,1013.20
2019-06-10T00:30:12.086Z,1013.19
2019-06-10T00:31:20.608Z,1013.23
2019-06-10T00:32:21.320Z,1013.27
2019-06-10T00:33:12.142Z,1013.24
2019-06-10T00:34:12.096Z,1013.18
2019-06-10T00:35:12.170Z,1013.21
2019-06-10T00:36:21.371Z,1013.16
2019-06-10T00:38:26.996Z,1013.12
2019-06-10T00:39:27.010Z,1013.07
2019-06-10T00:40:27.012Z,1013.01
2019-06-10T00:41:26.932Z,1013.09
2019-06-10T00:42:26.931Z,1013.08
2019-06-10T00:43:26.929Z,1013.08
2019-06-10T00:44:26.964Z,1013.06
2019-06-10T00:45:26.942Z,1013.04
2019-06-10T00:46:26.889Z,1013.07
2019-06-10T00:47:26.899Z,1012.99
2019-06-10T00:48:29.367Z,1012.97
2019-06-10T00:49:27.904Z,1012.99
2019-06-10T00:50:26.892Z,1012.95
2019-06-10T00:51:26.914Z,1012.96
2019-06-10T00:52:26.833Z,1012.87
2019-06-10T00:53:26.848Z,1012.89
2019-06-10T00:54:26.866Z,1012.87
2019-06-10T00:55:26.843Z,1012.85
2019-06-10T00:56:26.851Z,1012.82
2019-06-10T00:57:26.808Z,1012.83
2019-06-10T00:58:26.866Z,1012.79
2019-06-10T00:59:26.757Z,1012.84
2019-06-10T01:00:26.801Z,1012.80
2019-06-10T01:01:26.762Z,1012.81
2019-06-10T01:02:26.796Z,1012.77
2019-06-10T01:03:26.724Z,1012.80
2019-06-10T01:04:26.762Z,1012.70
2019-06-10T01:05:26.705Z,1012.70
2019-06-10T01:06:26.706Z,1012.64
2019-06-10T01:08:43.776Z,1012.58
2019-06-10T01:09:43.713Z,1012.56
2019-06-10T01:10:44.354Z,1012.55
2019-06-10T01:11:53.131Z,1012.47
2019-06-10T01:12:43.681Z,1012.47
2019-06-10T01:13:43.676Z,1012.41
2019-06-10T01:14:43.656Z,1012.41
2019-06-10T01:15:43.648Z,1012.40
2019-06-10T01:16:43.645Z,1012.40
2019-06-10T01:17:43.620Z,1012.36
2019-06-10T01:18:43.660Z,1012.36
2019-06-10T01:19:43.682Z,1012.33
2019-06-10T01:20:43.635Z,1012.27
2019-06-10T01:21:43.587Z,1012.23
2019-06-10T01:22:43.637Z,1012.22
2019-06-10T01:23:43.608Z,1012.21
2019-06-10T01:24:43.589Z,1012.21
2019-06-10T01:25:43.620Z,1012.21
2019-06-10T01:26:43.547Z,1012.20
2019-06-10T01:27:43.523Z,1012.22
2019-06-10T01:28:43.649Z,1012.19
2019-06-10T01:29:43.533Z,1012.18
2019-06-10T01:30:43.524Z,1012.18
2019-06-10T01:31:43.547Z,1012.20
2019-06-10T01:32:43.538Z,1012.17
2019-06-10T01:33:43.479Z,1012.16
2019-06-10T01:34:43.446Z,1012.14
2019-06-10T01:35:43.435Z,1012.14
2019-06-10T01:36:43.495Z,1012.16
2019-06-10T01:37:43.439Z,1012.18
2019-06-10T01:38:43.423Z,1012.14
2019-06-10T01:39:43.398Z,1012.15
2019-06-10T01:40:43.428Z,1012.16
2019-06-10T01:41:43.410Z,1012.14
2019-06-10T01:42:43.381Z,1012.16
2019-06-10T01:43:43.355Z,1012.15
2019-06-10T01:44:43.351Z,1012.15
2019-06-10T01:45:43.357Z,1012.16
2019-06-10T01:46:43.328Z,1012.16
2019-06-10T01:47:43.314Z,1012.15
2019-06-10T01:48:47.855Z,1012.15
2019-06-10T01:49:44.328Z,1012.13
2019-06-10T01:50:43.322Z,1012.11
2019-06-10T01:51:43.311Z,1012.08
2019-06-10T01:52:43.284Z,1012.08
2019-06-10T01:53:43.245Z,1012.04
2019-06-10T01:54:43.249Z,1012.01
2019-06-10T01:55:43.222Z,1012.01
2019-06-10T01:56:43.270Z,1012.00
2019-06-10T01:57:43.192Z,1012.00
2019-06-10T01:58:43.184Z,1012.02
2019-06-10T01:59:43.208Z,1012.00
2019-06-10T02:00:43.182Z,1012.04
2019-06-10T02:01:43.208Z,1012.06
2019-06-10T02:02:44.532Z,1012.06
2019-06-10T02:03:43.131Z,1012.06
2019-06-10T02:04:43.147Z,1012.06
2019-06-10T02:05:43.134Z,1012.00
2019-06-10T02:06:43.123Z,1012.02
2019-06-10T02:07:43.130Z,1012.02
2019-06-10T02:08:43.078Z,1011.97
2019-06-10T02:09:43.084Z,1011.95
2019-06-10T02:10:43.099Z,1011.91
2019-06-10T02:11:43.073Z,1011.90
2019-06-10T02:12:43.069Z,1011.85
2019-06-10T02:13:43.048Z,1011.83
2019-06-10T02:14:43.022Z,1011.85
2019-06-10T02:15:43.083Z,1011.84
2019-06-10T02:16:43.018Z,1011.78
2019-06-10T02:17:43.031Z,1011.75
2019-06-10T02:18:56.879Z,1011.70
2019-06-10T02:19:43.961Z,1011.73
2019-06-10T02:20:42.963Z,1011.67
2019-06-10T02:21:42.963Z,1011.65
2019-06-10T02:22:42.952Z,1011.61
2019-06-10T02:23:42.969Z,1011.59
2019-06-10T02:24:42.920Z,1011.57
2019-06-10T02:25:42.909Z,1011.52
2019-06-10T02:26:42.917Z,1011.43
2019-06-10T02:27:42.900Z,1011.39
2019-06-10T02:28:42.900Z,1011.33
2019-06-10T02:29:42.880Z,1011.31
2019-06-10T02:30:50.845Z,1011.29
2019-06-10T02:31:43.970Z,1011.24
2019-06-10T02:32:43.087Z,1011.22
2019-06-10T02:33:42.869Z,1011.18
2019-06-10T02:35:00.868Z,1011.12
2019-06-10T02:35:48.864Z,1011.11
2019-06-10T02:36:44.585Z,1011.10
2019-06-10T02:37:44.483Z,1011.09
2019-06-10T02:38:44.409Z,1011.08
2019-06-10T02:39:43.995Z,1011.14
2019-06-10T02:40:43.515Z,1011.18
2019-06-10T02:41:44.614Z,1011.10
2019-06-10T02:42:43.608Z,1011.13
2019-06-10T02:43:44.072Z,1011.04
2019-06-10T02:44:44.577Z,1010.94
2019-06-10T02:45:44.583Z,1010.90
2019-06-10T02:46:43.976Z,1010.87
2019-06-10T02:47:44.330Z,1010.87
2019-06-10T02:48:43.656Z,1010.96
2019-06-10T02:49:57.084Z,1010.99
2019-06-10T02:50:44.283Z,1011.08
2019-06-10T02:51:43.645Z,1011.21
2019-06-10T02:52:44.499Z,1011.29
2019-06-10T02:53:43.346Z,1011.32
2019-06-10T02:54:43.823Z,1011.30
2019-06-10T02:55:43.393Z,1011.29
2019-06-10T02:56:44.217Z,1011.28
2019-06-10T02:57:44.819Z,1011.31
2019-06-10T02:58:44.833Z,1011.42
2019-06-10T02:59:43.541Z,1011.52
2019-06-10T03:00:48.116Z,1011.57
2019-06-10T03:01:44.179Z,1011.62
2019-06-10T03:02:45.131Z,1011.38
2019-06-10T03:03:48.319Z,1011.10
2019-06-10T03:04:43.483Z,1010.98
2019-06-10T03:05:46.460Z,1010.97
2019-06-10T03:06:44.820Z,1010.91
2019-06-10T03:07:44.422Z,1010.90
2019-06-10T03:08:43.629Z,1010.85
2019-06-10T03:09:42.829Z,1010.87
2019-06-10T03:10:44.256Z,1010.85
2019-06-10T03:11:44.838Z,1010.77
2019-06-10T03:12:42.529Z,1010.68
2019-06-10T03:13:42.649Z,1010.74
2019-06-10T03:14:42.439Z,1010.68
2019-06-10T03:15:42.742Z,1010.63
2019-06-10T03:16:42.400Z,1010.65
2019-06-10T03:17:43.071Z,1010.67
2019-06-10T03:18:43.399Z,1010.63
2019-06-10T03:19:50.110Z,1010.64
2019-06-10T03:20:43.331Z,1010.65
2019-06-10T03:21:42.895Z,1010.67
2019-06-10T03:22:42.451Z,1010.68
2019-06-10T03:23:42.775Z,1010.71
2019-06-10T03:24:42.305Z,1010.69
2019-06-10T03:25:42.322Z,1010.69
2019-06-10T03:26:42.803Z,1010.70
2019-06-10T03:27:42.530Z,1010.71
2019-06-10T03:28:42.769Z,1010.70
2019-06-10T03:29:42.268Z,1010.70
2019-06-10T03:30:53.359Z,1010.70
2019-06-10T03:31:48.153Z,1010.70
2019-06-10T03:32:47.093Z,1010.68
2019-06-10T03:33:47.424Z,1010.67
2019-06-10T03:34:47.448Z,1010.57
2019-06-10T03:35:42.414Z,1010.52
2019-06-10T03:36:42.958Z,1010.56
2019-06-10T03:37:42.467Z,1010.60
2019-06-10T03:38:43.204Z,1010.64
2019-06-10T03:39:42.733Z,1010.66
2019-06-10T03:40:43.412Z,1010.74
2019-06-10T03:41:42.450Z,1010.76
2019-06-10T03:42:42.814Z,1010.77
2019-06-10T03:43:42.960Z,1010.79
2019-06-10T03:44:43.083Z,1010.81
2019-06-10T03:45:42.537Z,1010.81
2019-06-10T03:46:43.166Z,1010.85
2019-06-10T03:47:42.647Z,1010.88
2019-06-10T03:48:43.332Z,1010.91
2019-06-10T03:49:51.913Z,1010.93
2019-06-10T03:50:43.207Z,1010.97
2019-06-10T03:51:42.822Z,1010.97
2019-06-10T03:52:43.176Z,1011.04
2019-06-10T03:53:42.578Z,1010.99
2019-06-10T03:54:43.232Z,1010.98
2019-06-10T03:55:42.418Z,1010.96
2019-06-10T03:56:43.017Z,1010.95
2019-06-10T03:57:42.451Z,1010.91
2019-06-10T03:58:43.159Z,1010.89
2019-06-10T03:59:42.260Z,1010.86
2019-06-10T04:00:43.045Z,1010.88
2019-06-10T04:01:42.699Z,1010.91
2019-06-10T04:02:43.057Z,1010.90
2019-06-10T04:03:42.719Z,1010.91
2019-06-10T04:04:42.984Z,1010.93
2019-06-10T04:05:42.319Z,1010.91
2019-06-10T04:06:44.179Z,1010.90
2019-06-10T04:07:42.727Z,1010.92
2019-06-10T04:08:43.259Z,1010.85
2019-06-10T04:09:42.536Z,1010.80
2019-06-10T04:10:42.950Z,1010.75
2019-06-10T04:11:43.178Z,1010.73
2019-06-10T04:12:43.449Z,1010.75
2019-06-10T04:13:43.129Z,1010.77
2019-06-10T04:14:42.052Z,1010.76
2019-06-10T04:15:43.118Z,1010.75
2019-06-10T04:16:43.310Z,1010.65
2019-06-10T04:17:42.768Z,1010.65
2019-06-10T04:18:43.016Z,1010.67
2019-06-10T04:19:42.089Z,1010.66
2019-06-10T04:20:42.923Z,1010.63
2019-06-10T04:21:43.253Z,1010.60
2019-06-10T04:22:41.662Z,1010.65
2019-06-10T04:23:42.354Z,1010.62
2019-06-10T04:24:43.102Z,1010.57
2019-06-10T04:25:42.741Z,1010.57
2019-06-10T04:26:43.473Z,1010.57
2019-06-10T04:27:42.501Z,1010.61
2019-06-10T04:28:42.978Z,1010.60
2019-06-10T04:29:42.195Z,1010.56
2019-06-10T04:30:43.297Z,1010.59
2019-06-10T04:31:42.498Z,1010.59
2019-06-10T04:32:42.950Z,1010.62
2019-06-10T04:33:42.101Z,1010.56
2019-06-10T04:34:43.295Z,1010.60
2019-06-10T04:35:42.778Z,1010.53
2019-06-10T04:36:42.248Z,1010.55
2019-06-10T04:37:42.846Z,1010.51
2019-06-10T04:38:43.225Z,1010.46
2019-06-10T04:39:42.797Z,1010.43
2019-06-10T04:40:43.067Z,1010.45
2019-06-10T04:41:42.654Z,1010.45
2019-06-10T04:42:43.483Z,1010.49
2019-06-10T04:43:43.265Z,1010.54
2019-06-10T04:44:42.289Z,1010.53
2019-06-10T04:45:42.978Z,1010.46
2019-06-10T04:46:42.825Z,1010.39
2019-06-10T04:47:43.144Z,1010.35
2019-06-10T04:48:42.710Z,1010.42
2019-06-10T04:49:42.832Z,1010.38
2019-06-10T04:50:45.974Z,1010.38
2019-06-10T04:51:43.397Z,1010.31
2019-06-10T04:52:43.146Z,1010.30
2019-06-10T04:53:43.595Z,1010.31
2019-06-10T04:54:42.135Z,1010.23
2019-06-10T04:55:43.111Z,1010.22
2019-06-10T04:56:42.868Z,1010.19
2019-06-10T04:57:43.049Z,1010.20
2019-06-10T04:58:43.282Z,1010.17
2019-06-10T04:59:42.865Z,1010.21
2019-06-10T05:00:42.905Z,1010.19
2019-06-10T05:01:42.643Z,1010.18
2019-06-10T05:02:43.036Z,1010.16
2019-06-10T05:03:43.384Z,1010.13
2019-06-10T05:04:42.595Z,1010.15
2019-06-10T05:05:43.084Z,1010.16
2019-06-10T05:06:42.252Z,1010.14
2019-06-10T05:07:42.787Z,1010.16
2019-06-10T05:08:42.681Z,1010.23
2019-06-10T05:09:42.238Z,1010.31
2019-06-10T05:10:42.401Z,1010.34
2019-06-10T05:11:43.085Z,1010.33
2019-06-10T05:12:43.203Z,1010.33
2019-06-10T05:13:49.662Z,1010.37
2019-06-10T05:14:52.539Z,1010.37
2019-06-10T05:15:49.252Z,1010.39
2019-06-10T05:16:43.074Z,1010.46
2019-06-10T05:17:43.776Z,1010.55
2019-06-10T05:18:42.373Z,1010.55
2019-06-10T05:19:42.863Z,1010.54
2019-06-10T05:20:54.005Z,1010.51
2019-06-10T05:21:42.545Z,1010.58
2019-06-10T05:22:42.486Z,1010.55
2019-06-10T05:23:43.023Z,1010.53
2019-06-10T05:24:42.430Z,1010.46
2019-06-10T05:25:42.783Z,1010.45
2019-06-10T05:26:42.545Z,1010.44
2019-06-10T05:27:42.919Z,1010.44
2019-06-10T05:28:43.317Z,1010.39
2019-06-10T05:29:42.199Z,1010.39
2019-06-10T05:30:42.601Z,1010.36
2019-06-10T05:31:43.501Z,1010.40
2019-06-10T05:32:42.993Z,1010.43
2019-06-10T05:33:42.677Z,1010.44
2019-06-10T05:34:43.523Z,1010.44
2019-06-10T05:35:42.711Z,1010.43
2019-06-10T05:36:43.300Z,1010.42
2019-06-10T05:37:42.283Z,1010.32
2019-06-10T05:38:43.193Z,1010.26
2019-06-10T05:39:42.406Z,1010.21
2019-06-10T05:40:42.768Z,1010.12
2019-06-10T05:41:43.048Z,1010.13
2019-06-10T05:42:42.656Z,1010.09
2019-06-10T05:43:42.790Z,1010.10
2019-06-10T05:44:42.921Z,1010.05
2019-06-10T05:45:42.419Z,1010.08
2019-06-10T05:46:43.290Z,1010.07
2019-06-10T05:47:42.685Z,1010.15
2019-06-10T05:48:40.768Z,1010.16
2019-06-10T05:49:42.929Z,1010.14
2019-06-10T05:50:42.760Z,1010.14
2019-06-10T05:51:42.281Z,1010.08
2019-06-10T05:52:42.740Z,1010.04
2019-06-10T05:53:42.247Z,1010.02
2019-06-10T05:54:42.964Z,1010.02
2019-06-10T05:55:42.770Z,1010.01
2019-06-10T05:56:43.025Z,1009.95
2019-06-10T05:57:42.832Z,1009.90
2019-06-10T05:58:43.347Z,1009.86
2019-06-10T05:59:43.136Z,1009.84
2019-06-10T06:00:42.723Z,1009.86
2019-06-10T06:01:42.892Z,1009.89
2019-06-10T06:02:43.097Z,1009.89
2019-06-10T06:03:40.618Z,1009.96
2019-06-10T06:04:42.682Z,1010.00
2019-06-10T06:05:40.595Z,1010.05
2019-06-10T06:06:42.453Z,1010.08
2019-06-10T06:07:42.356Z,1010.08
2019-06-10T06:08:42.782Z,1010.08
2019-06-10T06:09:42.582Z,1010.06
2019-06-10T06:10:42.394Z,1010.05
2019-06-10T06:11:42.814Z,1010.06
2019-06-10T06:12:42.487Z,1010.07
2019-06-10T06:13:42.984Z,1010.04
2019-06-10T06:14:42.452Z,1010.06
2019-06-10T06:15:42.422Z,1010.06
2019-06-10T06:16:42.991Z,1010.10
2019-06-10T06:17:42.956Z,1010.12
2019-06-10T06:18:42.215Z,1010.11
2019-06-10T06:19:43.161Z,1010.09
2019-06-10T06:20:40.407Z,1010.08
2019-06-10T06:21:47.071Z,1010.02
2019-06-10T06:22:42.888Z,1010.01
2019-06-10T06:23:40.395Z,1009.96
2019-06-10T06:24:42.631Z,1009.96
2019-06-10T06:25:44.283Z,1009.88
2019-06-10T06:26:43.278Z,1009.94
2019-06-10T06:27:42.082Z,1009.98
2019-06-10T06:28:42.906Z,1010.01
2019-06-10T06:29:42.964Z,1010.02
2019-06-10T06:30:42.316Z,1010.05
2019-06-10T06:31:42.722Z,1010.05
2019-06-10T06:32:40.428Z,1010.08
2019-06-10T06:33:42.970Z,1010.05
2019-06-10T06:34:40.257Z,1010.07
2019-06-10T06:35:45.547Z,1010.10
2019-06-10T06:36:42.277Z,1010.00
2019-06-10T06:37:42.725Z,1010.00
2019-06-10T06:38:40.213Z,1009.96
2019-06-10T06:39:42.754Z,1009.96
2019-06-10T06:40:40.204Z,1009.96
2019-06-10T06:41:42.399Z,1010.00
2019-06-10T06:42:40.202Z,1010.05
2019-06-10T06:43:44.384Z,1010.12
2019-06-10T06:44:40.139Z,1010.12
2019-06-10T06:45:42.647Z,1010.12
2019-06-10T06:46:42.664Z,1010.10
2019-06-10T06:47:40.158Z,1010.07
2019-06-10T06:48:41.004Z,1010.07
2019-06-10T06:49:42.381Z,1010.00
2019-06-10T06:50:59.090Z,1009.99
2019-06-10T06:51:51.819Z,1009.93
2019-06-10T06:53:15.360Z,1009.91
2019-06-10T06:53:50.371Z,1009.88
2019-06-10T06:54:42.431Z,1009.87
2019-06-10T06:55:40.041Z,1009.81
2019-06-10T06:56:41.210Z,1009.71
2019-06-10T06:57:40.162Z,1009.64
2019-06-10T06:58:40.713Z,1009.59
2019-06-10T06:59:40.850Z,1009.63
2019-06-10T07:00:57.402Z,1009.64
2019-06-10T07:01:44.039Z,1009.66
2019-06-10T07:02:40.909Z,1009.55
2019-06-10T07:03:41.810Z,1009.49
2019-06-10T07:04:40.465Z,1009.47
2019-06-10T07:05:41.026Z,1009.43
2019-06-10T07:06:40.357Z,1009.40
2019-06-10T07:07:41.090Z,1009.46
2019-06-10T07:08:41.485Z,1009.46
2019-06-10T07:09:41.220Z,1009.44
2019-06-10T07:10:41.436Z,1009.43
2019-06-10T07:11:41.113Z,1009.42
2019-06-10T07:12:41.073Z,1009.38
2019-06-10T07:13:43.395Z,1009.34
2019-06-10T07:14:44.737Z,1009.30
2019-06-10T07:15:42.183Z,1009.30
2019-06-10T07:16:44.322Z,1009.32
2019-06-10T07:17:45.143Z,1009.25
2019-06-10T07:18:48.742Z,1009.31
2019-06-10T07:19:42.116Z,1009.33
2019-06-10T07:20:40.972Z,1009.39
2019-06-10T07:21:57.986Z,1009.46
2019-06-10T07:22:42.779Z,1009.44
2019-06-10T07:23:45.164Z,1009.37
2019-06-10T07:24:43.055Z,1009.38
2019-06-10T07:25:46.542Z,1009.36
2019-06-10T07:26:45.340Z,1009.40
2019-06-10T07:27:45.131Z,1009.42
2019-06-10T07:28:45.075Z,1009.40
2019-06-10T07:29:46.487Z,1009.42
2019-06-10T07:30:47.772Z,1009.44
2019-06-10T07:31:43.485Z,1009.40
2019-06-10T07:32:41.532Z,1009.50
2019-06-10T07:33:43.045Z,1009.45
2019-06-10T07:34:42.274Z,1009.53
2019-06-10T07:35:41.606Z,1009.45
2019-06-10T07:36:40.858Z,1009.50
2019-06-10T07:37:41.059Z,1009.49
2019-06-10T07:38:41.847Z,1009.44
2019-06-10T07:39:41.730Z,1009.37
2019-06-10T07:40:39.590Z,1009.41
2019-06-10T07:41:39.654Z,1009.41
2019-06-10T07:42:39.558Z,1009.37
2019-06-10T07:43:42.555Z,1009.39
2019-06-10T07:44:43.158Z,1009.37
2019-06-10T07:45:41.592Z,1009.37
2019-06-10T07:46:43.460Z,1009.41
2019-06-10T07:47:41.723Z,1009.36
2019-06-10T07:48:41.094Z,1009.35
2019-06-10T07:49:39.481Z,1009.36
2019-06-10T07:50:39.478Z,1009.37
2019-06-10T07:51:39.565Z,1009.40
2019-06-10T07:52:39.448Z,1009.44
2019-06-10T07:53:40.023Z,1009.44
2019-06-10T07:54:39.459Z,1009.43
2019-06-10T07:55:39.595Z,1009.43
2019-06-10T07:56:45.190Z,1009.41
2019-06-10T07:57:43.609Z,1009.42
2019-06-10T07:58:40.122Z,1009.40
2019-06-10T07:59:39.574Z,1009.37
2019-06-10T08:00:40.807Z,1009.40
2019-06-10T08:01:48.106Z,1009.44
2019-06-10T08:02:42.829Z,1009.43
2019-06-10T08:03:39.858Z,1009.43
2019-06-10T08:04:39.984Z,1009.39
2019-06-10T08:05:40.107Z,1009.47
2019-06-10T08:06:39.856Z,1009.49
2019-06-10T08:07:39.295Z,1009.48
2019-06-10T08:08:39.333Z,1009.49
2019-06-10T08:09:39.277Z,1009.46
2019-06-10T08:10:39.332Z,1009.46
2019-06-10T08:11:39.371Z,1009.44
2019-06-10T08:12:39.337Z,1009.41
2019-06-10T08:13:39.360Z,1009.47
2019-06-10T08:14:39.550Z,1009.47
2019-06-10T08:15:39.750Z,1009.51
2019-06-10T08:16:39.871Z,1009.50
2019-06-10T08:17:40.395Z,1009.44
2019-06-10T08:19:07.067Z,1009.43
2019-06-10T08:19:45.413Z,1009.42
2019-06-10T08:20:43.516Z,1009.40
2019-06-10T08:21:40.649Z,1009.38
2019-06-10T08:22:49.186Z,1009.34
2019-06-10T08:23:41.037Z,1009.33
2019-06-10T08:24:39.390Z,1009.34
2019-06-10T08:25:40.370Z,1009.33
2019-06-10T08:26:39.377Z,1009.34
2019-06-10T08:27:40.281Z,1009.35
2019-06-10T08:28:39.650Z,1009.25
2019-06-10T08:29:39.067Z,1009.29
2019-06-10T08:30:39.864Z,1009.32
2019-06-10T08:31:39.083Z,1009.31
2019-06-10T08:32:40.048Z,1009.30
2019-06-10T08:33:39.092Z,1009.30
2019-06-10T08:34:42.979Z,1009.29
2019-06-10T08:35:48.540Z,1009.32
2019-06-10T08:36:42.172Z,1009.29
2019-06-10T08:37:40.808Z,1009.30
2019-06-10T08:38:40.259Z,1009.37
2019-06-10T08:39:40.184Z,1009.36
2019-06-10T08:40:40.643Z,1009.38
2019-06-10T08:41:39.011Z,1009.31
2019-06-10T08:42:39.014Z,1009.31
2019-06-10T08:43:38.952Z,1009.29
2019-06-10T08:44:38.921Z,1009.31
2019-06-10T08:45:38.987Z,1009.31
2019-06-10T08:46:38.885Z,1009.30
2019-06-10T08:47:39.224Z,1009.26
2019-06-10T08:48:39.050Z,1009.22
2019-06-10T08:49:39.139Z,1009.26
2019-06-10T08:50:39.336Z,1009.25
2019-06-10T08:51:39.688Z,1009.27
2019-06-10T08:52:56.917Z,1009.28
2019-06-10T08:53:42.548Z,1009.26
2019-06-10T08:54:41.276Z,1009.23
2019-06-10T08:55:42.206Z,1009.25
2019-06-10T08:56:40.056Z,1009.26
2019-06-10T08:57:42.437Z,1009.25
2019-06-10T08:58:40.892Z,1009.22
2019-06-10T08:59:39.996Z,1009.20
2019-06-10T09:00:40.168Z,1009.16
2019-06-10T09:01:39.464Z,1009.17
2019-06-10T09:02:40.634Z,1009.20
2019-06-10T09:03:40.162Z,1009.20
2019-06-10T09:04:39.259Z,1009.15
2019-06-10T09:05:39.577Z,1009.19
2019-06-10T09:06:50.604Z,1009.16
2019-06-10T09:07:49.995Z,1009.16
2019-06-10T09:10:02.973Z,1009.21
2019-06-10T09:11:12.953Z,1009.23
2019-06-10T09:12:03.453Z,1009.18
2019-06-10T09:13:02.789Z,1009.18
2019-06-10T09:14:02.576Z,1009.14
2019-06-10T09:15:13.049Z,1009.19
2019-06-10T09:16:16.650Z,1009.17
2019-06-10T09:18:23.662Z,1009.14
2019-06-10T09:19:23.667Z,1009.16
2019-06-10T09:20:23.622Z,1009.11
2019-06-10T09:21:23.912Z,1009.13
2019-06-10T09:22:23.760Z,1009.10
2019-06-10T09:23:25.630Z,1009.13
2019-06-10T09:24:23.573Z,1009.14
2019-06-10T09:25:23.562Z,1009.12
2019-06-10T09:26:23.557Z,1009.12
2019-06-10T09:27:26.663Z,1009.13
2019-06-10T09:28:23.654Z,1009.13
2019-06-10T09:29:33.491Z,1009.10
2019-06-10T09:30:23.634Z,1009.07
2019-06-10T09:31:33.531Z,1009.08
2019-06-10T09:32:32.557Z,1009.09
2019-06-10T09:34:43.042Z,1009.01
2019-06-10T09:35:50.948Z,1009.02
2019-06-10T09:36:51.805Z,1009.04
2019-06-10T09:38:33.749Z,1009.02
2019-06-10T09:39:48.497Z,1008.98
2019-06-10T09:40:34.318Z,1009.00
2019-06-10T09:41:41.120Z,1008.89
2019-06-10T09:42:34.167Z,1008.88
2019-06-10T09:43:46.876Z,1008.85
2019-06-10T09:44:34.139Z,1008.78
2019-06-10T09:45:45.902Z,1008.73
2019-06-10T09:46:33.327Z,1008.78
2019-06-10T09:47:34.747Z,1008.71
2019-06-10T09:48:33.724Z,1008.77
2019-06-10T09:49:33.649Z,1008.70
2019-06-10T09:50:33.414Z,1008.74
2019-06-10T09:51:33.057Z,1008.72
2019-06-10T09:52:33.078Z,1008.71
2019-06-10T09:53:41.367Z,1008.73
2019-06-10T09:54:34.004Z,1008.75
2019-06-10T09:55:33.050Z,1008.67
2019-06-10T09:56:33.209Z,1008.66
2019-06-10T09:57:33.019Z,1008.67
2019-06-10T09:58:33.229Z,1008.76
2019-06-10T09:59:33.202Z,1008.71
2019-06-10T10:00:48.825Z,1008.72
2019-06-10T10:04:02.469Z,1008.79
2019-06-10T10:05:12.308Z,1008.73
2019-06-10T10:07:04.120Z,1008.75
2019-06-10T10:08:12.850Z,1008.71
2019-06-10T10:09:12.633Z,1008.67
2019-06-10T10:11:21.258Z,1008.73
2019-06-10T10:12:22.703Z,1008.77
2019-06-10T10:13:35.969Z,1008.77
2019-06-10T10:14:30.083Z,1008.79
2019-06-10T10:15:31.592Z,1008.84
2019-06-10T10:16:22.454Z,1008.89
2019-06-10T10:17:23.012Z,1008.85
2019-06-10T10:18:23.570Z,1008.87
2019-06-10T10:19:23.030Z,1008.92
2019-06-10T10:20:22.818Z,1008.89
2019-06-10T10:21:22.249Z,1008.95
2019-06-10T10:22:22.751Z,1008.96
2019-06-10T10:23:22.681Z,1008.93
2019-06-10T10:24:22.890Z,1008.90
2019-06-10T10:25:20.478Z,1008.89
2019-06-10T10:26:20.480Z,1008.90
2019-06-10T10:27:20.521Z,1008.90
2019-06-10T10:28:23.042Z,1008.88
2019-06-10T10:29:21.420Z,1008.84
2019-06-10T10:30:20.494Z,1008.78
2019-06-10T10:31:23.037Z,1008.76
2019-06-10T10:32:22.591Z,1008.73
2019-06-10T10:33:23.873Z,1008.72
2019-06-10T10:34:23.569Z,1008.68
2019-06-10T10:35:20.369Z,1008.68
2019-06-10T10:36:22.425Z,1008.68
2019-06-10T10:37:22.751Z,1008.68
2019-06-10T10:38:22.727Z,1008.64
2019-06-10T10:39:22.016Z,1008.64
2019-06-10T10:40:32.587Z,1008.66
2019-06-10T10:41:23.212Z,1008.66
2019-06-10T10:42:41.679Z,1008.67
2019-06-10T10:43:28.859Z,1008.65
2019-06-10T10:44:21.700Z,1008.66
2019-06-10T10:45:22.668Z,1008.62
2019-06-10T10:48:14.101Z,1008.71
2019-06-10T10:49:14.646Z,1008.68
2019-06-10T10:50:13.986Z,1008.73
2019-06-10T10:51:13.407Z,1008.72
2019-06-10T10:52:13.056Z,1008.72
2019-06-10T10:53:13.644Z,1008.71
2019-06-10T10:54:28.408Z,1008.73
2019-06-10T10:55:14.170Z,1008.74
2019-06-10T10:56:13.269Z,1008.77
2019-06-10T10:57:13.755Z,1008.73
2019-06-10T10:58:13.066Z,1008.70
2019-06-10T10:59:13.478Z,1008.66
2019-06-10T11:00:13.064Z,1008.62
2019-06-10T11:01:15.091Z,1008.57
2019-06-10T11:02:13.072Z,1008.61
2019-06-10T11:03:13.366Z,1008.58
2019-06-10T11:04:13.361Z,1008.58
2019-06-10T11:05:12.942Z,1008.58
2019-06-10T11:06:23.469Z,1008.59
2019-06-10T11:07:13.064Z,1008.57
2019-06-10T11:08:14.211Z,1008.61
2019-06-10T11:09:13.709Z,1008.57
2019-06-10T11:10:13.099Z,1008.60
2019-06-10T11:11:23.651Z,1008.56
2019-06-10T11:12:12.855Z,1008.54
2019-06-10T11:13:12.728Z,1008.53
2019-06-10T11:14:14.988Z,1008.56
2019-06-10T11:16:33.065Z,1008.59
2019-06-10T11:17:43.376Z,1008.58
2019-06-10T11:18:30.789Z,1008.59
2019-06-10T11:19:32.391Z,1008.57
2019-06-10T11:20:33.587Z,1008.56
2019-06-10T11:21:32.880Z,1008.58
2019-06-10T11:22:32.892Z,1008.58
2019-06-10T11:23:34.249Z,1008.63
2019-06-10T11:24:37.751Z,1008.63
2019-06-10T11:26:43.131Z,1008.64
2019-06-10T11:27:43.125Z,1008.63
2019-06-10T11:28:42.844Z,1008.61
2019-06-10T11:29:42.259Z,1008.61
2019-06-10T11:30:42.593Z,1008.59
2019-06-10T11:31:42.592Z,1008.54
2019-06-10T11:32:43.243Z,1008.54
2019-06-10T11:33:43.428Z,1008.49
2019-06-10T11:34:42.908Z,1008.51
2019-06-10T11:35:42.803Z,1008.48
2019-06-10T11:36:42.638Z,1008.47
2019-06-10T11:37:42.268Z,1008.47
2019-06-10T11:38:41.688Z,1008.47
2019-06-10T11:39:41.694Z,1008.45
2019-06-10T11:40:42.832Z,1008.46
2019-06-10T11:41:52.861Z,1008.48
2019-06-10T11:45:10.292Z,1008.52
2019-06-10T11:46:19.623Z,1008.50
2019-06-10T11:47:19.814Z,1008.47
2019-06-10T11:48:10.262Z,1008.48
2019-06-10T11:49:12.413Z,1008.44
2019-06-10T11:50:12.141Z,1008.44
2019-06-10T11:51:12.737Z,1008.43
2019-06-10T11:52:12.512Z,1008.43
2019-06-10T11:53:12.616Z,1008.38
2019-06-10T11:54:12.648Z,1008.42
2019-06-10T11:55:18.321Z,1008.52
2019-06-10T11:56:13.111Z,1008.54
2019-06-10T11:57:12.368Z,1008.54
2019-06-10T11:58:10.405Z,1008.60
2019-06-10T11:59:13.347Z,1008.50
2019-06-10T12:00:14.818Z,1008.39
2019-06-10T12:01:12.964Z,1008.35
2019-06-10T12:02:10.137Z,1008.41
2019-06-10T12:03:10.159Z,1008.38
2019-06-10T12:04:17.762Z,1008.35
2019-06-10T12:05:12.823Z,1008.35
2019-06-10T12:06:10.066Z,1008.39
2019-06-10T12:07:10.144Z,1008.31
2019-06-10T12:08:12.806Z,1008.33
2019-06-10T12:09:10.133Z,1008.26
2019-06-10T12:10:12.656Z,1008.24
2019-06-10T12:11:12.410Z,1008.24
2019-06-10T12:12:12.674Z,1008.29
2019-06-10T12:13:10.254Z,1008.29
2019-06-10T12:14:19.208Z,1008.26
2019-06-10T12:15:18.734Z,1008.34
2019-06-10T12:17:14.961Z,1008.34
2019-06-10T12:17:40.042Z,1008.33
2019-06-10T12:18:13.023Z,1008.35
2019-06-10T12:19:12.508Z,1008.32
2019-06-10T12:20:13.072Z,1008.34
2019-06-10T12:21:12.763Z,1008.37
2019-06-10T12:22:10.006Z,1008.31
2019-06-10T12:23:09.904Z,1008.30
2019-06-10T12:24:12.479Z,1008.25